createdAt,value
2022-08-11T00:01:26.888Z,1.85
2022-08-11T00:04:03.501Z,2.28
2022-08-11T00:06:38.071Z,2.00
2022-08-11T00:09:12.489Z,2.20
2022-08-11T00:11:46.434Z,2.15
2022-08-11T00:14:36.860Z,2.20
2022-08-11T00:17:08.635Z,1.95
2022-08-11T00:20:14.208Z,1.90
2022-08-11T00:22:28.399Z,1.88
2022-08-11T00:25:00.163Z,2.47
2022-08-11T00:27:35.378Z,2.38
2022-08-11T00:30:05.474Z,2.00
2022-08-11T00:32:33.412Z,1.92
2022-08-11T00:35:54.742Z,1.95
2022-08-11T00:37:52.756Z,2.22
2022-08-11T00:40:45.197Z,2.30
2022-08-11T00:44:15.287Z,1.95
2022-08-11T00:47:06.028Z,2.00
2022-08-11T00:50:00.807Z,2.10
2022-08-11T00:53:05.803Z,1.60
2022-08-11T00:56:10.865Z,2.10
2022-08-11T00:58:56.199Z,2.50
2022-08-11T01:01:37.738Z,2.20
2022-08-11T01:04:34.316Z,2.10
2022-08-11T01:07:13.581Z,2.38
2022-08-11T01:09:52.771Z,4.35
2022-08-11T01:12:41.947Z,4.22
2022-08-11T01:15:41.096Z,4.32
2022-08-11T01:18:45.135Z,4.28
2022-08-11T01:21:52.823Z,4.28
2022-08-11T01:24:48.990Z,3.95
2022-08-11T01:27:32.623Z,3.10
2022-08-11T01:30:36.330Z,3.17
2022-08-11T01:33:47.998Z,2.90
2022-08-11T01:36:57.234Z,2.40
2022-08-11T01:39:52.414Z,3.08
2022-08-11T01:42:58.477Z,2.40
2022-08-11T01:48:45.099Z,2.30
2022-08-11T01:51:34.918Z,2.20
2022-08-11T01:54:17.732Z,2.20
2022-08-11T01:56:50.165Z,2.67
2022-08-11T01:59:24.900Z,3.03
2022-08-11T02:02:01.333Z,2.38
2022-08-11T02:04:38.234Z,3.00
2022-08-11T02:07:26.911Z,2.85
2022-08-11T02:10:01.775Z,2.60
2022-08-11T02:12:57.290Z,2.63
2022-08-11T02:15:36.650Z,2.92
2022-08-11T02:18:16.861Z,2.47
2022-08-11T02:21:10.575Z,2.90
2022-08-11T02:24:05.537Z,2.55
2022-08-11T02:26:45.821Z,2.80
2022-08-11T02:29:25.216Z,2.47
2022-08-11T02:32:31.987Z,3.17
2022-08-11T02:35:05.514Z,2.40
2022-08-11T02:37:32.814Z,3.08
2022-08-11T02:40:03.374Z,2.38
2022-08-11T02:42:39.715Z,2.63
2022-08-11T02:45:28.493Z,2.47
2022-08-11T02:48:27.371Z,2.88
2022-08-11T02:50:57.686Z,3.00
2022-08-11T02:53:58.522Z,2.90
2022-08-11T02:56:44.806Z,2.67
2022-08-11T02:59:38.764Z,2.80
2022-08-11T03:02:33.024Z,2.40
2022-08-11T03:05:17.612Z,2.67
2022-08-11T03:08:15.486Z,2.60
2022-08-11T03:11:13.636Z,2.50
2022-08-11T03:14:31.338Z,2.00
2022-08-11T03:17:16.890Z,2.10
2022-08-11T03:19:47.662Z,2.97
2022-08-11T03:22:31.918Z,2.60
2022-08-11T03:25:22.412Z,2.90
2022-08-11T03:28:11.679Z,3.20
2022-08-11T03:31:13.240Z,3.25
2022-08-11T03:34:06.686Z,2.72
2022-08-11T03:37:15.147Z,2.45
2022-08-11T03:39:52.719Z,2.90
2022-08-11T03:42:53.211Z,2.58
2022-08-11T03:45:57.303Z,3.28
2022-08-11T03:48:45.617Z,3.03
2022-08-11T03:51:19.218Z,2.80
2022-08-11T03:54:01.423Z,3.08
2022-08-11T03:56:47.231Z,3.17
2022-08-11T03:59:38.121Z,3.10
2022-08-11T04:02:31.744Z,3.72
2022-08-11T04:05:26.669Z,2.85
2022-08-11T04:08:13.413Z,2.78
2022-08-11T04:11:16.538Z,3.20
2022-08-11T04:14:22.206Z,3.15
2022-08-11T04:17:19.698Z,3.25
2022-08-11T04:20:26.804Z,2.95
2022-08-11T04:24:13.108Z,3.20
2022-08-11T04:27:08.197Z,3.08
2022-08-11T04:30:19.036Z,3.42
2022-08-11T04:32:57.308Z,3.05
2022-08-11T04:35:48.582Z,3.17
2022-08-11T04:38:59.004Z,3.53
2022-08-11T04:42:31.716Z,3.00
2022-08-11T04:45:17.816Z,3.80
2022-08-11T04:48:12.497Z,3.05
2022-08-11T04:51:26.899Z,3.60
2022-08-11T04:55:10.391Z,3.33
2022-08-11T04:58:08.387Z,3.35
2022-08-11T05:01:37.120Z,3.20
2022-08-11T05:04:32.531Z,3.42
2022-08-11T05:07:45.831Z,4.38
2022-08-11T05:10:39.992Z,3.17
2022-08-11T05:13:30.741Z,3.75
2022-08-11T05:16:23.416Z,3.13
2022-08-11T05:19:15.990Z,3.70
2022-08-11T05:22:10.355Z,3.22
2022-08-11T05:25:00.460Z,3.28
2022-08-11T05:28:20.923Z,2.97
2022-08-11T05:31:07.585Z,3.20
2022-08-11T05:34:00.902Z,3.47
2022-08-11T05:36:42.093Z,3.95
2022-08-11T05:39:41.528Z,3.72
2022-08-11T05:42:30.085Z,3.63
2022-08-11T05:45:28.071Z,2.90
2022-08-11T05:48:34.071Z,3.65
2022-08-11T05:51:29.913Z,3.22
2022-08-11T05:54:29.150Z,3.70
2022-08-11T05:56:59.815Z,3.20
2022-08-11T05:59:28.722Z,3.22
2022-08-11T06:02:07.614Z,3.10
2022-08-11T06:04:35.343Z,3.50
2022-08-11T06:07:09.427Z,3.47
2022-08-11T06:09:51.381Z,3.40
2022-08-11T06:12:25.712Z,3.22
2022-08-11T06:17:26.857Z,4.22
2022-08-11T06:20:12.383Z,4.68
2022-08-11T06:22:43.707Z,4.82
2022-08-11T06:25:12.449Z,4.22
2022-08-11T06:27:44.142Z,3.83
2022-08-11T06:30:14.733Z,4.13
2022-08-11T06:32:45.045Z,3.83
2022-08-11T06:35:40.526Z,4.22
2022-08-11T06:38:35.087Z,4.13
2022-08-11T06:44:13.367Z,4.78
2022-08-11T06:46:51.100Z,4.25
2022-08-11T06:49:40.450Z,3.95
2022-08-11T06:52:35.300Z,4.15
2022-08-11T06:55:12.636Z,4.03
2022-08-11T06:58:15.421Z,3.95
2022-08-11T07:00:44.047Z,4.70
2022-08-11T07:03:16.487Z,4.85
2022-08-11T07:06:01.832Z,5.07
2022-08-11T07:08:53.733Z,5.82
2022-08-11T07:12:24.562Z,5.00
2022-08-11T07:15:13.529Z,4.70
2022-08-11T07:18:12.123Z,4.30
2022-08-11T07:21:02.139Z,4.65
2022-08-11T07:23:52.359Z,5.05
2022-08-11T07:26:40.426Z,4.18
2022-08-11T07:29:09.931Z,4.43
2022-08-11T07:31:53.991Z,3.90
2022-08-11T07:34:37.909Z,4.70
2022-08-11T07:37:13.611Z,4.32
2022-08-11T07:39:44.292Z,4.55
2022-08-11T07:42:15.992Z,4.47
2022-08-11T07:45:03.731Z,4.60
2022-08-11T07:47:50.634Z,4.60
2022-08-11T07:50:36.712Z,4.43
2022-08-11T07:53:04.699Z,4.53
2022-08-11T07:55:50.280Z,3.97
2022-08-11T07:58:45.687Z,3.95
2022-08-11T08:01:41.469Z,3.30
2022-08-11T08:04:30.424Z,3.70
2022-08-11T08:07:17.529Z,4.00
2022-08-11T08:10:03.847Z,4.00
2022-08-11T08:12:50.259Z,4.03
2022-08-11T08:15:38.869Z,3.95
2022-08-11T08:18:26.487Z,3.88
2022-08-11T08:21:11.992Z,3.92
2022-08-11T08:23:42.232Z,3.50
2022-08-11T08:26:32.629Z,4.28
2022-08-11T08:29:21.874Z,4.35
2022-08-11T08:31:50.040Z,3.97
2022-08-11T08:34:18.779Z,4.15
2022-08-11T08:36:49.303Z,4.45
2022-08-11T08:39:21.920Z,4.22
2022-08-11T08:41:59.647Z,3.95
2022-08-11T08:44:38.324Z,4.15
2022-08-11T08:47:37.512Z,4.07
2022-08-11T08:50:16.864Z,3.88
2022-08-11T08:52:54.426Z,4.45
2022-08-11T08:55:22.710Z,3.65
2022-08-11T08:57:54.352Z,4.53
2022-08-11T09:00:23.844Z,4.38
2022-08-11T09:02:52.286Z,4.75
2022-08-11T09:05:20.050Z,4.43
2022-08-11T09:07:51.194Z,4.00
2022-08-11T09:10:21.068Z,4.00
2022-08-11T09:12:50.297Z,4.75
2022-08-11T09:15:20.758Z,4.20
2022-08-11T09:17:53.522Z,4.03
2022-08-11T09:20:29.354Z,3.92
2022-08-11T09:26:30.866Z,3.72
2022-08-11T09:31:33.510Z,4.20
2022-08-11T09:34:03.430Z,4.00
2022-08-11T09:36:50.875Z,3.97
2022-08-11T09:39:37.972Z,3.72
2022-08-11T09:42:06.259Z,3.42
2022-08-11T09:44:52.952Z,3.72
2022-08-11T09:47:23.600Z,3.78
2022-08-11T09:50:02.391Z,3.60
2022-08-11T09:52:37.904Z,3.53
2022-08-11T09:55:11.006Z,4.07
2022-08-11T09:58:05.311Z,3.72
2022-08-11T10:00:40.303Z,3.95
2022-08-11T10:03:24.596Z,3.20
2022-08-11T10:06:15.369Z,3.53
2022-08-11T10:08:44.462Z,3.17
2022-08-11T10:11:14.731Z,3.65
2022-08-11T10:14:33.387Z,3.30
2022-08-11T10:16:52.545Z,3.05
2022-08-11T10:19:22.127Z,3.20
2022-08-11T10:22:12.511Z,3.70
2022-08-11T10:25:02.480Z,2.80
2022-08-11T10:28:16.619Z,3.50
2022-08-11T10:30:36.089Z,3.25
2022-08-11T10:33:37.787Z,3.08
2022-08-11T10:36:16.704Z,2.78
2022-08-11T10:38:46.854Z,2.90
2022-08-11T10:41:33.508Z,2.92
2022-08-11T10:44:03.996Z,2.85
2022-08-11T10:46:50.909Z,2.60
2022-08-11T10:49:20.179Z,2.85
2022-08-11T10:52:06.597Z,3.00
2022-08-11T10:54:54.543Z,2.90
2022-08-11T10:57:41.851Z,2.78
2022-08-11T11:00:29.188Z,2.50
2022-08-11T11:03:23.193Z,2.67
2022-08-11T11:06:27.694Z,3.00
2022-08-11T11:08:55.482Z,3.03
2022-08-11T11:11:53.282Z,3.40
2022-08-11T11:14:46.786Z,2.45
2022-08-11T11:17:56.245Z,2.60
2022-08-11T11:20:38.441Z,2.40
2022-08-11T11:23:29.066Z,3.25
2022-08-11T11:26:10.307Z,2.50
2022-08-11T11:28:47.116Z,2.63
2022-08-11T11:31:51.702Z,2.97
2022-08-11T11:34:54.012Z,2.90
2022-08-11T11:37:23.772Z,2.90
2022-08-11T11:39:53.122Z,3.00
2022-08-11T11:42:21.834Z,2.42
2022-08-11T11:44:52.187Z,2.60
2022-08-11T11:47:23.343Z,3.10
2022-08-11T11:49:51.192Z,3.00
2022-08-11T11:52:21.085Z,3.20
2022-08-11T11:54:51.643Z,3.25
2022-08-11T11:57:40.446Z,3.60
2022-08-11T12:00:33.382Z,3.38
2022-08-11T12:03:06.807Z,3.10
2022-08-11T12:05:36.251Z,3.38
2022-08-11T12:08:17.450Z,3.40
2022-08-11T12:11:13.440Z,3.65
2022-08-11T12:13:42.465Z,3.75
2022-08-11T12:16:32.773Z,2.80
2022-08-11T12:19:01.854Z,3.17
2022-08-11T12:21:30.401Z,3.45
2022-08-11T12:24:18.610Z,3.45
2022-08-11T12:27:15.690Z,3.28
2022-08-11T12:29:56.264Z,3.03
2022-08-11T12:32:27.135Z,3.22
2022-08-11T12:34:56.771Z,2.60
2022-08-11T12:37:30.278Z,3.33
2022-08-11T12:40:43.608Z,3.20
2022-08-11T12:43:39.298Z,3.45
2022-08-11T12:46:16.666Z,3.40
2022-08-11T12:49:08.389Z,3.08
2022-08-11T12:52:13.376Z,2.95
2022-08-11T12:54:49.681Z,3.40
2022-08-11T12:57:50.448Z,3.13
2022-08-11T13:00:37.854Z,3.35
2022-08-11T13:03:26.836Z,3.13
2022-08-11T13:05:57.132Z,3.40
2022-08-11T13:08:27.128Z,3.28
2022-08-11T13:11:15.583Z,3.65
2022-08-11T13:13:53.509Z,3.92
2022-08-11T13:16:32.214Z,2.95
2022-08-11T13:19:01.201Z,3.10
2022-08-11T13:21:30.035Z,3.47
2022-08-11T13:24:01.143Z,3.20
2022-08-11T13:26:46.862Z,3.10
2022-08-11T13:29:23.281Z,3.00
2022-08-11T13:31:52.711Z,3.53
2022-08-11T13:34:22.985Z,2.80
2022-08-11T13:36:53.242Z,2.97
2022-08-11T13:39:26.762Z,3.08
2022-08-11T13:41:57.183Z,3.35
2022-08-11T13:44:27.545Z,3.10
2022-08-11T13:47:02.420Z,3.13
2022-08-11T13:49:37.032Z,3.22
2022-08-11T13:52:13.566Z,3.20
2022-08-11T13:54:42.712Z,3.20
2022-08-11T13:58:06.652Z,3.00
2022-08-11T14:00:15.835Z,3.13
2022-08-11T14:02:57.648Z,3.00
2022-08-11T14:05:49.106Z,3.33
2022-08-11T14:08:37.136Z,3.30
2022-08-11T14:12:21.590Z,3.35
2022-08-11T14:14:20.689Z,2.80
2022-08-11T14:16:51.083Z,3.28
2022-08-11T14:19:22.838Z,2.63
2022-08-11T14:22:08.082Z,2.92
2022-08-11T14:24:49.654Z,3.15
2022-08-11T14:28:30.403Z,3.17
2022-08-11T14:30:28.218Z,2.78
2022-08-11T14:32:57.274Z,2.80
2022-08-11T14:35:28.363Z,3.28
2022-08-11T14:37:58.597Z,2.70
2022-08-11T14:40:44.939Z,2.72
2022-08-11T14:44:05.860Z,2.50
2022-08-11T14:46:37.471Z,3.08
2022-08-11T14:49:05.292Z,2.63
2022-08-11T14:51:34.258Z,2.70
2022-08-11T14:54:20.731Z,3.03
2022-08-11T14:56:48.399Z,3.17
2022-08-11T14:59:16.111Z,2.95
2022-08-11T15:02:02.768Z,2.55
2022-08-11T15:04:35.423Z,2.80
2022-08-11T15:07:04.387Z,2.85
2022-08-11T15:12:33.986Z,2.63
2022-08-11T15:15:26.142Z,2.75
2022-08-11T15:17:55.733Z,2.67
2022-08-11T15:20:44.059Z,3.00
2022-08-11T15:23:30.854Z,2.83
2022-08-11T15:26:02.306Z,3.03
2022-08-11T15:28:55.195Z,3.25
2022-08-11T15:32:00.639Z,3.08
2022-08-11T15:37:29.559Z,3.40
2022-08-11T15:40:31.743Z,3.20
2022-08-11T15:43:43.060Z,2.53
2022-08-11T15:46:17.741Z,3.13
2022-08-11T15:48:49.993Z,2.80
2022-08-11T15:51:41.486Z,3.42
2022-08-11T15:54:13.328Z,2.60
2022-08-11T15:56:46.336Z,3.05
2022-08-11T15:59:43.167Z,2.70
2022-08-11T16:02:35.541Z,2.55
2022-08-11T16:05:08.362Z,3.53
2022-08-11T16:07:40.493Z,2.88
2022-08-11T16:10:10.868Z,2.75
2022-08-11T16:13:06.428Z,2.85
2022-08-11T16:15:59.063Z,2.90
2022-08-11T16:18:40.864Z,3.03
2022-08-11T16:21:26.774Z,3.05
2022-08-11T16:24:05.848Z,2.92
2022-08-11T16:27:10.235Z,3.03
2022-08-11T16:29:25.316Z,2.60
2022-08-11T16:32:13.467Z,2.40
2022-08-11T16:35:00.564Z,2.47
2022-08-11T16:37:48.489Z,3.20
2022-08-11T16:40:16.763Z,2.85
2022-08-11T16:43:10.891Z,2.60
2022-08-11T16:46:00.647Z,2.65
2022-08-11T16:48:37.039Z,3.22
2022-08-11T16:51:07.513Z,2.97
2022-08-11T16:53:45.991Z,2.88
2022-08-11T16:56:31.558Z,3.40
2022-08-11T16:59:18.017Z,2.70
2022-08-11T17:01:58.568Z,2.80
2022-08-11T17:05:10.768Z,2.78
2022-08-11T17:08:01.282Z,2.53
2022-08-11T17:10:56.691Z,2.78
2022-08-11T17:13:40.139Z,3.10
2022-08-11T17:16:12.753Z,2.67
2022-08-11T17:19:01.070Z,2.60
2022-08-11T17:21:36.602Z,2.60
2022-08-11T17:24:09.331Z,2.85
2022-08-11T17:26:58.571Z,2.83
2022-08-11T17:29:32.139Z,2.63
2022-08-11T17:32:28.042Z,3.57
2022-08-11T17:35:31.079Z,2.88
2022-08-11T17:38:01.366Z,2.92
2022-08-11T17:40:29.931Z,2.88
2022-08-11T17:43:16.881Z,2.63
2022-08-11T17:46:04.882Z,3.03
2022-08-11T17:48:47.990Z,2.38
2022-08-11T17:51:38.467Z,3.05
2022-08-11T17:54:27.325Z,2.63
2022-08-11T17:57:21.305Z,2.60
2022-08-11T17:59:56.316Z,2.30
2022-08-11T18:02:49.308Z,2.63
2022-08-11T18:05:19.743Z,2.83
2022-08-11T18:08:09.355Z,2.97
2022-08-11T18:10:57.554Z,2.65
2022-08-11T18:13:45.526Z,2.80
2022-08-11T18:16:31.387Z,2.78
2022-08-11T18:19:17.699Z,3.00
2022-08-11T18:22:14.504Z,2.67
2022-08-11T18:25:06.942Z,2.72
2022-08-11T18:27:54.554Z,2.75
2022-08-11T18:30:42.709Z,2.70
2022-08-11T18:36:46.514Z,2.67
2022-08-11T18:39:33.699Z,2.20
2022-08-11T18:42:29.342Z,2.75
2022-08-11T18:45:21.296Z,2.58
2022-08-11T18:48:11.602Z,2.95
2022-08-11T18:51:31.302Z,2.80
2022-08-11T18:54:16.140Z,2.75
2022-08-11T18:57:05.508Z,2.60
2022-08-11T18:59:56.243Z,2.70
2022-08-11T19:02:49.539Z,2.83
2022-08-11T19:06:33.713Z,2.83
2022-08-11T19:08:49.868Z,2.55
2022-08-11T19:11:42.592Z,3.03
2022-08-11T19:14:31.437Z,2.97
2022-08-11T19:17:43.911Z,3.20
2022-08-11T19:20:31.982Z,2.95
2022-08-11T19:23:19.119Z,3.00
2022-08-11T19:26:06.412Z,3.35
2022-08-11T19:28:53.887Z,3.22
2022-08-11T19:31:43.999Z,3.10
2022-08-11T19:34:39.959Z,3.28
2022-08-11T19:37:27.369Z,3.20
2022-08-11T19:40:22.616Z,2.90
2022-08-11T19:43:23.357Z,2.70
2022-08-11T19:46:16.101Z,2.55
2022-08-11T19:49:09.951Z,2.80
2022-08-11T19:51:57.439Z,3.15
2022-08-11T19:54:46.384Z,3.47
2022-08-11T19:57:39.374Z,3.50
2022-08-11T20:00:37.289Z,3.28
2022-08-11T20:03:27.714Z,3.53
2022-08-11T20:06:17.338Z,3.38
2022-08-11T20:09:05.583Z,3.45
2022-08-11T20:11:55.771Z,3.78
2022-08-11T20:14:45.748Z,3.30
2022-08-11T20:17:32.449Z,3.20
2022-08-11T20:20:22.755Z,3.00
2022-08-11T20:23:13.674Z,3.05
2022-08-11T20:26:13.990Z,3.38
2022-08-11T20:29:08.781Z,3.70
2022-08-11T20:31:55.708Z,3.65
2022-08-11T20:34:42.603Z,2.58
2022-08-11T20:37:30.407Z,3.05
2022-08-11T20:40:23.780Z,3.25
2022-08-11T20:43:15.854Z,3.03
2022-08-11T20:46:18.569Z,2.95
2022-08-11T20:49:06.100Z,2.83
2022-08-11T20:51:52.880Z,2.95
2022-08-11T20:54:43.600Z,3.10
2022-08-11T21:00:44.056Z,2.85
2022-08-11T21:03:35.530Z,2.80
2022-08-11T21:06:31.683Z,3.13
2022-08-11T21:09:25.022Z,2.80
2022-08-11T21:12:31.554Z,2.80
2022-08-11T21:15:39.184Z,3.13
2022-08-11T21:18:29.611Z,2.70
2022-08-11T21:21:19.242Z,3.20
2022-08-11T21:24:06.911Z,2.95
2022-08-11T21:27:01.633Z,3.10
2022-08-11T21:29:52.859Z,2.95
2022-08-11T21:32:43.189Z,3.33
2022-08-11T21:35:30.369Z,3.15
2022-08-11T21:38:18.318Z,2.90
2022-08-11T21:41:05.808Z,2.70
2022-08-11T21:43:52.464Z,3.20
2022-08-11T21:46:40.906Z,3.65
2022-08-11T21:49:29.771Z,2.78
2022-08-11T21:52:15.498Z,2.80
2022-08-11T21:55:02.380Z,2.83
2022-08-11T21:57:50.321Z,2.75
2022-08-11T22:00:36.750Z,3.10
2022-08-11T22:03:23.607Z,2.67
2022-08-11T22:06:10.835Z,3.13
2022-08-11T22:08:56.951Z,3.08
2022-08-11T22:11:42.815Z,3.25
2022-08-11T22:14:28.854Z,3.00
2022-08-11T22:17:14.815Z,2.83
2022-08-11T22:20:01.306Z,3.00
2022-08-11T22:22:52.087Z,3.25
2022-08-11T22:25:46.449Z,3.00
2022-08-11T22:28:38.628Z,3.13
2022-08-11T22:31:25.425Z,3.22
2022-08-11T22:34:11.421Z,3.20
2022-08-11T22:36:59.721Z,3.08
2022-08-11T22:40:00.013Z,3.60
2022-08-11T22:42:50.608Z,2.88
2022-08-11T22:45:37.072Z,2.95
2022-08-11T22:48:24.318Z,3.00
2022-08-11T22:51:11.242Z,3.08
2022-08-11T22:53:59.343Z,4.18
2022-08-11T22:56:48.340Z,3.58
2022-08-11T22:59:36.662Z,3.22
2022-08-11T23:02:25.009Z,3.03
2022-08-11T23:05:11.440Z,3.03
2022-08-11T23:07:58.778Z,3.28
2022-08-11T23:10:45.771Z,2.90
2022-08-11T23:13:31.950Z,2.85
2022-08-11T23:16:18.475Z,3.78
2022-08-11T23:19:05.560Z,2.70
2022-08-11T23:21:53.393Z,2.85
2022-08-11T23:24:40.238Z,2.80
2022-08-11T23:27:28.092Z,3.33
2022-08-11T23:30:19.019Z,3.33
2022-08-11T23:33:09.804Z,3.40
2022-08-11T23:36:04.469Z,3.20
2022-08-11T23:38:51.984Z,2.60
2022-08-11T23:41:38.642Z,3.22
2022-08-11T23:44:26.047Z,3.60
2022-08-11T23:47:19.010Z,3.20
2022-08-11T23:50:08.455Z,2.80
2022-08-11T23:52:54.854Z,3.25
2022-08-11T23:55:40.929Z,3.65
2022-08-11T23:58:28.148Z,3.00
